sensor_id;sensor_type;location;lat;lon;timestamp;P1;durP1;ratioP1;P2;durP2;ratioP2
55090;SDS011;40985;53.180;5.800;2022-07-01T00:01:35;5.25;;;0.60;;
55090;SDS011;40985;53.180;5.800;2022-07-01T00:04:01;3.85;;;0.98;;
55090;SDS011;40985;53.180;5.800;2022-07-01T00:06:27;7.85;;;0.60;;
55090;SDS011;40985;53.180;5.800;2022-07-01T00:08:53;5.50;;;0.47;;
55090;SDS011;40985;53.180;5.800;2022-07-01T00:11:18;1.38;;;0.28;;
55090;SDS011;40985;53.180;5.800;2022-07-01T00:13:44;2.80;;;0.40;;
55090;SDS011;40985;53.180;5.800;2022-07-01T00:16:10;4.60;;;0.70;;
55090;SDS011;40985;53.180;5.800;2022-07-01T00:18:35;5.90;;;0.60;;
55090;SDS011;40985;53.180;5.800;2022-07-01T00:21:01;2.25;;;0.50;;
55090;SDS011;40985;53.180;5.800;2022-07-01T00:23:27;2.00;;;0.63;;
55090;SDS011;40985;53.180;5.800;2022-07-01T00:25:53;2.65;;;0.75;;
55090;SDS011;40985;53.180;5.800;2022-07-01T00:28:19;1.80;;;0.68;;
55090;SDS011;40985;53.180;5.800;2022-07-01T00:30:45;4.03;;;1.05;;
55090;SDS011;40985;53.180;5.800;2022-07-01T00:33:10;4.35;;;0.68;;
55090;SDS011;40985;53.180;5.800;2022-07-01T00:35:36;3.10;;;0.50;;
55090;SDS011;40985;53.180;5.800;2022-07-01T00:38:02;3.20;;;0.60;;
55090;SDS011;40985;53.180;5.800;2022-07-01T00:40:28;2.05;;;0.50;;
55090;SDS011;40985;53.180;5.800;2022-07-01T00:42:53;2.35;;;0.65;;
55090;SDS011;40985;53.180;5.800;2022-07-01T00:45:19;2.40;;;0.70;;
55090;SDS011;40985;53.180;5.800;2022-07-01T00:47:44;1.63;;;0.70;;
55090;SDS011;40985;53.180;5.800;2022-07-01T00:50:11;2.58;;;0.82;;
55090;SDS011;40985;53.180;5.800;2022-07-01T00:52:39;3.45;;;1.17;;
55090;SDS011;40985;53.180;5.800;2022-07-01T00:55:07;2.53;;;0.70;;
55090;SDS011;40985;53.180;5.800;2022-07-01T00:57:36;1.63;;;0.50;;
55090;SDS011;40985;53.180;5.800;2022-07-01T01:00:06;1.58;;;0.50;;
55090;SDS011;40985;53.180;5.800;2022-07-01T01:02:40;2.75;;;0.52;;
55090;SDS011;40985;53.180;5.800;2022-07-01T01:05:06;3.88;;;1.00;;
55090;SDS011;40985;53.180;5.800;2022-07-01T01:07:33;2.33;;;1.10;;
55090;SDS011;40985;53.180;5.800;2022-07-01T01:09:59;4.03;;;0.80;;
55090;SDS011;40985;53.180;5.800;2022-07-01T01:12:27;4.30;;;1.30;;
55090;SDS011;40985;53.180;5.800;2022-07-01T01:14:53;3.08;;;1.35;;
55090;SDS011;40985;53.180;5.800;2022-07-01T01:17:18;1.35;;;0.77;;
55090;SDS011;40985;53.180;5.800;2022-07-01T01:19:47;3.55;;;1.70;;
55090;SDS011;40985;53.180;5.800;2022-07-01T01:22:14;6.97;;;3.22;;
55090;SDS011;40985;53.180;5.800;2022-07-01T01:24:40;6.25;;;2.67;;
55090;SDS011;40985;53.180;5.800;2022-07-01T01:27:07;3.35;;;3.15;;
55090;SDS011;40985;53.180;5.800;2022-07-01T01:29:34;6.70;;;5.20;;
55090;SDS011;40985;53.180;5.800;2022-07-01T01:32:00;6.57;;;5.63;;
55090;SDS011;40985;53.180;5.800;2022-07-01T01:34:27;6.15;;;5.55;;
55090;SDS011;40985;53.180;5.800;2022-07-01T01:36:53;13.50;;;8.73;;
55090;SDS011;40985;53.180;5.800;2022-07-01T01:39:19;8.95;;;8.02;;
55090;SDS011;40985;53.180;5.800;2022-07-01T01:41:45;11.65;;;9.20;;
55090;SDS011;40985;53.180;5.800;2022-07-01T01:44:11;11.07;;;7.47;;
55090;SDS011;40985;53.180;5.800;2022-07-01T01:46:37;10.27;;;8.93;;
55090;SDS011;40985;53.180;5.800;2022-07-01T01:49:04;8.68;;;7.32;;
55090;SDS011;40985;53.180;5.800;2022-07-01T01:51:30;10.18;;;8.55;;
55090;SDS011;40985;53.180;5.800;2022-07-01T01:53:56;22.67;;;12.07;;
55090;SDS011;40985;53.180;5.800;2022-07-01T01:56:22;11.77;;;8.00;;
55090;SDS011;40985;53.180;5.800;2022-07-01T01:58:48;9.45;;;6.35;;
55090;SDS011;40985;53.180;5.800;2022-07-01T02:01:16;7.05;;;6.45;;
55090;SDS011;40985;53.180;5.800;2022-07-01T02:03:43;6.15;;;5.45;;
55090;SDS011;40985;53.180;5.800;2022-07-01T02:06:10;10.23;;;7.10;;
55090;SDS011;40985;53.180;5.800;2022-07-01T02:08:36;8.45;;;5.70;;
55090;SDS011;40985;53.180;5.800;2022-07-01T02:11:03;11.98;;;7.60;;
55090;SDS011;40985;53.180;5.800;2022-07-01T02:13:29;6.47;;;5.20;;
55090;SDS011;40985;53.180;5.800;2022-07-01T02:15:55;12.10;;;7.55;;
55090;SDS011;40985;53.180;5.800;2022-07-01T02:18:21;7.80;;;5.97;;
55090;SDS011;40985;53.180;5.800;2022-07-01T02:20:47;7.97;;;6.60;;
55090;SDS011;40985;53.180;5.800;2022-07-01T02:23:13;11.73;;;6.47;;
55090;SDS011;40985;53.180;5.800;2022-07-01T02:25:39;14.63;;;7.97;;
55090;SDS011;40985;53.180;5.800;2022-07-01T02:28:06;13.63;;;7.78;;
55090;SDS011;40985;53.180;5.800;2022-07-01T02:30:33;12.73;;;7.68;;
55090;SDS011;40985;53.180;5.800;2022-07-01T02:33:01;6.80;;;5.57;;
55090;SDS011;40985;53.180;5.800;2022-07-01T02:35:28;7.13;;;6.30;;
55090;SDS011;40985;53.180;5.800;2022-07-01T02:37:54;8.68;;;6.63;;
55090;SDS011;40985;53.180;5.800;2022-07-01T02:40:20;5.85;;;4.28;;
55090;SDS011;40985;53.180;5.800;2022-07-01T02:42:45;6.65;;;5.10;;
55090;SDS011;40985;53.180;5.800;2022-07-01T02:45:11;6.20;;;5.53;;
55090;SDS011;40985;53.180;5.800;2022-07-01T02:47:38;8.30;;;7.30;;
55090;SDS011;40985;53.180;5.800;2022-07-01T02:50:05;7.70;;;6.90;;
55090;SDS011;40985;53.180;5.800;2022-07-01T02:52:33;8.73;;;7.00;;
55090;SDS011;40985;53.180;5.800;2022-07-01T02:55:00;11.23;;;7.80;;
55090;SDS011;40985;53.180;5.800;2022-07-01T02:57:27;9.45;;;7.90;;
55090;SDS011;40985;53.180;5.800;2022-07-01T02:59:53;14.13;;;9.68;;
55090;SDS011;40985;53.180;5.800;2022-07-01T03:02:19;10.07;;;8.10;;
55090;SDS011;40985;53.180;5.800;2022-07-01T03:04:45;11.18;;;8.50;;
55090;SDS011;40985;53.180;5.800;2022-07-01T03:07:12;11.68;;;8.60;;
55090;SDS011;40985;53.180;5.800;2022-07-01T03:09:37;11.95;;;9.57;;
55090;SDS011;40985;53.180;5.800;2022-07-01T03:12:05;12.65;;;9.00;;
55090;SDS011;40985;53.180;5.800;2022-07-01T03:14:53;12.40;;;9.05;;
55090;SDS011;40985;53.180;5.800;2022-07-01T03:17:23;12.98;;;8.55;;
55090;SDS011;40985;53.180;5.800;2022-07-01T03:19:50;16.30;;;10.98;;
55090;SDS011;40985;53.180;5.800;2022-07-01T03:22:19;16.58;;;10.75;;
55090;SDS011;40985;53.180;5.800;2022-07-01T03:24:47;16.00;;;10.18;;
55090;SDS011;40985;53.180;5.800;2022-07-01T03:27:15;17.58;;;11.25;;
55090;SDS011;40985;53.180;5.800;2022-07-01T03:29:42;15.00;;;9.07;;
55090;SDS011;40985;53.180;5.800;2022-07-01T03:32:08;15.18;;;9.63;;
55090;SDS011;40985;53.180;5.800;2022-07-01T03:34:35;11.05;;;8.32;;
55090;SDS011;40985;53.180;5.800;2022-07-01T03:37:02;9.45;;;6.65;;
55090;SDS011;40985;53.180;5.800;2022-07-01T03:39:28;16.90;;;7.88;;
55090;SDS011;40985;53.180;5.800;2022-07-01T03:41:54;11.88;;;7.82;;
55090;SDS011;40985;53.180;5.800;2022-07-01T03:44:20;11.07;;;7.30;;
55090;SDS011;40985;53.180;5.800;2022-07-01T03:46:45;11.73;;;6.28;;
55090;SDS011;40985;53.180;5.800;2022-07-01T03:49:11;11.77;;;6.57;;
55090;SDS011;40985;53.180;5.800;2022-07-01T03:51:37;14.00;;;7.65;;
55090;SDS011;40985;53.180;5.800;2022-07-01T03:54:02;9.48;;;5.00;;
55090;SDS011;40985;53.180;5.800;2022-07-01T03:56:46;10.38;;;5.72;;
55090;SDS011;40985;53.180;5.800;2022-07-01T03:59:12;8.70;;;5.43;;
55090;SDS011;40985;53.180;5.800;2022-07-01T04:01:38;8.85;;;5.40;;
55090;SDS011;40985;53.180;5.800;2022-07-01T04:04:03;12.25;;;5.97;;
55090;SDS011;40985;53.180;5.800;2022-07-01T04:06:29;7.95;;;5.65;;
55090;SDS011;40985;53.180;5.800;2022-07-01T04:08:55;7.60;;;4.00;;
55090;SDS011;40985;53.180;5.800;2022-07-01T04:11:21;9.95;;;4.45;;
55090;SDS011;40985;53.180;5.800;2022-07-01T04:13:46;12.30;;;5.80;;
55090;SDS011;40985;53.180;5.800;2022-07-01T04:16:16;12.02;;;4.68;;
55090;SDS011;40985;53.180;5.800;2022-07-01T04:18:42;16.45;;;6.03;;
55090;SDS011;40985;53.180;5.800;2022-07-01T04:21:08;9.88;;;4.75;;
55090;SDS011;40985;53.180;5.800;2022-07-01T04:23:53;10.45;;;3.85;;
55090;SDS011;40985;53.180;5.800;2022-07-01T04:26:19;10.25;;;3.83;;
55090;SDS011;40985;53.180;5.800;2022-07-01T04:28:44;6.05;;;2.90;;
55090;SDS011;40985;53.180;5.800;2022-07-01T04:31:10;9.05;;;2.15;;
55090;SDS011;40985;53.180;5.800;2022-07-01T04:33:35;10.35;;;2.60;;
55090;SDS011;40985;53.180;5.800;2022-07-01T04:36:01;6.10;;;1.80;;
55090;SDS011;40985;53.180;5.800;2022-07-01T04:38:27;8.88;;;1.60;;
55090;SDS011;40985;53.180;5.800;2022-07-01T04:40:53;8.80;;;1.90;;
55090;SDS011;40985;53.180;5.800;2022-07-01T04:43:37;6.63;;;1.13;;
55090;SDS011;40985;53.180;5.800;2022-07-01T04:46:03;8.32;;;1.20;;
55090;SDS011;40985;53.180;5.800;2022-07-01T04:48:29;8.40;;;1.30;;
55090;SDS011;40985;53.180;5.800;2022-07-01T04:50:54;7.55;;;1.30;;
55090;SDS011;40985;53.180;5.800;2022-07-01T04:53:20;6.13;;;1.08;;
55090;SDS011;40985;53.180;5.800;2022-07-01T04:55:45;3.55;;;1.23;;
55090;SDS011;40985;53.180;5.800;2022-07-01T04:58:12;8.48;;;1.55;;
55090;SDS011;40985;53.180;5.800;2022-07-01T05:00:38;8.98;;;1.50;;
55090;SDS011;40985;53.180;5.800;2022-07-01T05:03:04;12.88;;;2.00;;
55090;SDS011;40985;53.180;5.800;2022-07-01T05:05:29;6.40;;;1.85;;
55090;SDS011;40985;53.180;5.800;2022-07-01T05:07:55;9.90;;;2.03;;
55090;SDS011;40985;53.180;5.800;2022-07-01T05:10:21;8.02;;;2.20;;
55090;SDS011;40985;53.180;5.800;2022-07-01T05:12:47;6.97;;;1.90;;
55090;SDS011;40985;53.180;5.800;2022-07-01T05:15:13;12.70;;;2.42;;
55090;SDS011;40985;53.180;5.800;2022-07-01T05:17:39;10.02;;;3.30;;
55090;SDS011;40985;53.180;5.800;2022-07-01T05:20:23;8.23;;;3.10;;
55090;SDS011;40985;53.180;5.800;2022-07-01T05:23:08;12.20;;;3.80;;
55090;SDS011;40985;53.180;5.800;2022-07-01T05:25:34;7.15;;;3.20;;
55090;SDS011;40985;53.180;5.800;2022-07-01T05:27:59;10.63;;;3.83;;
55090;SDS011;40985;53.180;5.800;2022-07-01T05:30:25;10.07;;;3.88;;
55090;SDS011;40985;53.180;5.800;2022-07-01T05:32:50;11.05;;;3.97;;
55090;SDS011;40985;53.180;5.800;2022-07-01T05:35:16;11.40;;;4.88;;
55090;SDS011;40985;53.180;5.800;2022-07-01T05:37:42;13.80;;;5.18;;
55090;SDS011;40985;53.180;5.800;2022-07-01T05:40:08;11.07;;;5.35;;
55090;SDS011;40985;53.180;5.800;2022-07-01T05:42:34;13.52;;;6.32;;
55090;SDS011;40985;53.180;5.800;2022-07-01T05:45:00;13.40;;;7.75;;
55090;SDS011;40985;53.180;5.800;2022-07-01T05:47:25;18.75;;;9.18;;
55090;SDS011;40985;53.180;5.800;2022-07-01T05:49:51;21.55;;;10.52;;
55090;SDS011;40985;53.180;5.800;2022-07-01T05:52:16;26.25;;;12.75;;
55090;SDS011;40985;53.180;5.800;2022-07-01T05:54:42;24.98;;;13.95;;
55090;SDS011;40985;53.180;5.800;2022-07-01T05:57:08;24.25;;;14.63;;
55090;SDS011;40985;53.180;5.800;2022-07-01T05:59:35;22.88;;;14.60;;
55090;SDS011;40985;53.180;5.800;2022-07-01T06:02:00;30.35;;;16.00;;
55090;SDS011;40985;53.180;5.800;2022-07-01T06:04:26;30.52;;;16.63;;
55090;SDS011;40985;53.180;5.800;2022-07-01T06:06:52;30.63;;;16.83;;
55090;SDS011;40985;53.180;5.800;2022-07-01T06:09:17;26.13;;;16.25;;
55090;SDS011;40985;53.180;5.800;2022-07-01T06:11:43;27.17;;;15.05;;
55090;SDS011;40985;53.180;5.800;2022-07-01T06:14:09;25.70;;;15.32;;
55090;SDS011;40985;53.180;5.800;2022-07-01T06:16:34;22.45;;;14.85;;
55090;SDS011;40985;53.180;5.800;2022-07-01T06:19:00;23.55;;;14.88;;
55090;SDS011;40985;53.180;5.800;2022-07-01T06:21:26;27.05;;;15.07;;
55090;SDS011;40985;53.180;5.800;2022-07-01T06:23:51;22.63;;;14.68;;
55090;SDS011;40985;53.180;5.800;2022-07-01T06:26:17;27.20;;;15.45;;
55090;SDS011;40985;53.180;5.800;2022-07-01T06:28:43;25.95;;;14.50;;
55090;SDS011;40985;53.180;5.800;2022-07-01T06:31:08;23.30;;;13.48;;
55090;SDS011;40985;53.180;5.800;2022-07-01T06:33:34;20.35;;;13.18;;
55090;SDS011;40985;53.180;5.800;2022-07-01T06:36:00;23.00;;;12.77;;
55090;SDS011;40985;53.180;5.800;2022-07-01T06:38:25;22.13;;;12.23;;
55090;SDS011;40985;53.180;5.800;2022-07-01T06:40:51;22.25;;;11.38;;
55090;SDS011;40985;53.180;5.800;2022-07-01T06:43:36;18.30;;;9.70;;
55090;SDS011;40985;53.180;5.800;2022-07-01T06:46:02;19.08;;;9.15;;
55090;SDS011;40985;53.180;5.800;2022-07-01T06:48:27;16.55;;;9.13;;
55090;SDS011;40985;53.180;5.800;2022-07-01T06:50:53;17.75;;;9.52;;
55090;SDS011;40985;53.180;5.800;2022-07-01T06:53:19;21.95;;;9.90;;
55090;SDS011;40985;53.180;5.800;2022-07-01T06:55:44;16.92;;;7.95;;
55090;SDS011;40985;53.180;5.800;2022-07-01T06:58:10;17.75;;;7.43;;
55090;SDS011;40985;53.180;5.800;2022-07-01T07:00:36;14.07;;;6.75;;
55090;SDS011;40985;53.180;5.800;2022-07-01T07:03:02;20.45;;;7.75;;
55090;SDS011;40985;53.180;5.800;2022-07-01T07:05:28;15.85;;;6.95;;
55090;SDS011;40985;53.180;5.800;2022-07-01T07:07:56;10.02;;;6.07;;
55090;SDS011;40985;53.180;5.800;2022-07-01T07:10:22;11.23;;;5.65;;
55090;SDS011;40985;53.180;5.800;2022-07-01T07:12:48;15.45;;;5.57;;
55090;SDS011;40985;53.180;5.800;2022-07-01T07:15:14;15.90;;;5.50;;
55090;SDS011;40985;53.180;5.800;2022-07-01T07:17:40;13.43;;;4.45;;
55090;SDS011;40985;53.180;5.800;2022-07-01T07:20:06;12.23;;;4.57;;
55090;SDS011;40985;53.180;5.800;2022-07-01T07:22:32;12.70;;;4.05;;
55090;SDS011;40985;53.180;5.800;2022-07-01T07:24:58;12.05;;;3.15;;
55090;SDS011;40985;53.180;5.800;2022-07-01T07:27:24;11.35;;;2.95;;
55090;SDS011;40985;53.180;5.800;2022-07-01T07:29:49;9.73;;;2.47;;
55090;SDS011;40985;53.180;5.800;2022-07-01T07:32:15;9.00;;;1.98;;
55090;SDS011;40985;53.180;5.800;2022-07-01T07:34:41;9.27;;;1.67;;
55090;SDS011;40985;53.180;5.800;2022-07-01T07:37:06;9.68;;;1.83;;
55090;SDS011;40985;53.180;5.800;2022-07-01T07:39:32;9.80;;;2.05;;
55090;SDS011;40985;53.180;5.800;2022-07-01T07:41:58;5.65;;;1.42;;
55090;SDS011;40985;53.180;5.800;2022-07-01T07:44:24;11.93;;;1.40;;
55090;SDS011;40985;53.180;5.800;2022-07-01T07:46:50;8.82;;;0.80;;
55090;SDS011;40985;53.180;5.800;2022-07-01T07:49:15;9.27;;;1.30;;
55090;SDS011;40985;53.180;5.800;2022-07-01T07:51:41;3.60;;;0.60;;
55090;SDS011;40985;53.180;5.800;2022-07-01T07:54:07;5.57;;;1.17;;
55090;SDS011;40985;53.180;5.800;2022-07-01T07:56:33;8.90;;;0.90;;
55090;SDS011;40985;53.180;5.800;2022-07-01T07:58:58;9.60;;;1.10;;
55090;SDS011;40985;53.180;5.800;2022-07-01T08:01:24;7.82;;;0.68;;
55090;SDS011;40985;53.180;5.800;2022-07-01T08:03:50;7.22;;;0.93;;
55090;SDS011;40985;53.180;5.800;2022-07-01T08:06:17;5.72;;;0.65;;
55090;SDS011;40985;53.180;5.800;2022-07-01T08:08:43;4.53;;;0.63;;
55090;SDS011;40985;53.180;5.800;2022-07-01T08:11:10;7.68;;;0.60;;
55090;SDS011;40985;53.180;5.800;2022-07-01T08:13:36;6.55;;;0.90;;
55090;SDS011;40985;53.180;5.800;2022-07-01T08:16:01;6.45;;;0.75;;
55090;SDS011;40985;53.180;5.800;2022-07-01T08:18:29;9.70;;;0.68;;
55090;SDS011;40985;53.180;5.800;2022-07-01T08:20:55;7.30;;;0.60;;
55090;SDS011;40985;53.180;5.800;2022-07-01T08:23:22;8.23;;;1.67;;
55090;SDS011;40985;53.180;5.800;2022-07-01T08:25:48;5.45;;;0.40;;
55090;SDS011;40985;53.180;5.800;2022-07-01T08:28:16;5.63;;;0.50;;
55090;SDS011;40985;53.180;5.800;2022-07-01T08:30:42;4.93;;;0.50;;
55090;SDS011;40985;53.180;5.800;2022-07-01T08:33:08;7.68;;;0.77;;
55090;SDS011;40985;53.180;5.800;2022-07-01T08:35:34;5.05;;;0.50;;
55090;SDS011;40985;53.180;5.800;2022-07-01T08:38:00;7.60;;;0.70;;
55090;SDS011;40985;53.180;5.800;2022-07-01T08:40:26;3.65;;;0.52;;
55090;SDS011;40985;53.180;5.800;2022-07-01T08:43:00;8.05;;;0.82;;
55090;SDS011;40985;53.180;5.800;2022-07-01T08:45:27;4.97;;;0.75;;
55090;SDS011;40985;53.180;5.800;2022-07-01T08:47:56;3.03;;;0.50;;
55090;SDS011;40985;53.180;5.800;2022-07-01T08:50:26;4.18;;;0.70;;
55090;SDS011;40985;53.180;5.800;2022-07-01T08:52:52;5.55;;;0.47;;
55090;SDS011;40985;53.180;5.800;2022-07-01T08:55:23;7.60;;;0.50;;
55090;SDS011;40985;53.180;5.800;2022-07-01T08:57:49;4.57;;;0.50;;
55090;SDS011;40985;53.180;5.800;2022-07-01T09:00:15;5.30;;;0.70;;
55090;SDS011;40985;53.180;5.800;2022-07-01T09:02:52;4.80;;;0.40;;
55090;SDS011;40985;53.180;5.800;2022-07-01T09:05:20;5.47;;;0.50;;
55090;SDS011;40985;53.180;5.800;2022-07-01T09:07:47;8.07;;;0.60;;
55090;SDS011;40985;53.180;5.800;2022-07-01T09:10:14;7.95;;;0.77;;
55090;SDS011;40985;53.180;5.800;2022-07-01T09:12:43;6.88;;;0.47;;
55090;SDS011;40985;53.180;5.800;2022-07-01T09:15:28;4.93;;;0.38;;
55090;SDS011;40985;53.180;5.800;2022-07-01T09:17:56;3.35;;;0.30;;
55090;SDS011;40985;53.180;5.800;2022-07-01T09:20:42;6.13;;;1.33;;
55090;SDS011;40985;53.180;5.800;2022-07-01T09:23:11;5.00;;;0.40;;
55090;SDS011;40985;53.180;5.800;2022-07-01T09:25:40;2.58;;;0.30;;
55090;SDS011;40985;53.180;5.800;2022-07-01T09:28:23;5.38;;;1.15;;
55090;SDS011;40985;53.180;5.800;2022-07-01T09:30:52;2.17;;;0.30;;
55090;SDS011;40985;53.180;5.800;2022-07-01T09:33:20;2.75;;;0.32;;
55090;SDS011;40985;53.180;5.800;2022-07-01T09:35:49;1.17;;;0.32;;
55090;SDS011;40985;53.180;5.800;2022-07-01T09:38:16;1.75;;;0.20;;
55090;SDS011;40985;53.180;5.800;2022-07-01T09:40:47;1.90;;;0.20;;
55090;SDS011;40985;53.180;5.800;2022-07-01T09:43:14;2.53;;;0.40;;
55090;SDS011;40985;53.180;5.800;2022-07-01T09:45:48;3.28;;;0.40;;
55090;SDS011;40985;53.180;5.800;2022-07-01T09:48:25;4.05;;;0.20;;
55090;SDS011;40985;53.180;5.800;2022-07-01T09:50:57;2.47;;;0.20;;
55090;SDS011;40985;53.180;5.800;2022-07-01T09:53:22;2.33;;;0.50;;
55090;SDS011;40985;53.180;5.800;2022-07-01T09:55:48;9.00;;;0.60;;
55090;SDS011;40985;53.180;5.800;2022-07-01T09:58:14;3.15;;;0.40;;
55090;SDS011;40985;53.180;5.800;2022-07-01T10:00:40;1.83;;;0.32;;
55090;SDS011;40985;53.180;5.800;2022-07-01T10:03:07;1.52;;;0.20;;
55090;SDS011;40985;53.180;5.800;2022-07-01T10:05:36;2.55;;;0.20;;
55090;SDS011;40985;53.180;5.800;2022-07-01T10:13:56;3.30;;;0.50;;
55090;SDS011;40985;53.180;5.800;2022-07-01T10:16:23;3.50;;;0.30;;
55090;SDS011;40985;53.180;5.800;2022-07-01T10:18:50;1.75;;;0.30;;
55090;SDS011;40985;53.180;5.800;2022-07-01T10:21:29;3.13;;;0.22;;
55090;SDS011;40985;53.180;5.800;2022-07-01T10:24:14;3.33;;;0.20;;
55090;SDS011;40985;53.180;5.800;2022-07-01T10:26:41;2.75;;;0.17;;
55090;SDS011;40985;53.180;5.800;2022-07-01T10:32:00;2.42;;;0.28;;
55090;SDS011;40985;53.180;5.800;2022-07-01T10:34:45;2.40;;;0.40;;
55090;SDS011;40985;53.180;5.800;2022-07-01T10:37:11;2.03;;;0.30;;
55090;SDS011;40985;53.180;5.800;2022-07-01T10:42:32;1.88;;;0.30;;
55090;SDS011;40985;53.180;5.800;2022-07-01T10:47:33;4.30;;;0.40;;
55090;SDS011;40985;53.180;5.800;2022-07-01T10:50:00;5.03;;;0.30;;
55090;SDS011;40985;53.180;5.800;2022-07-01T10:52:36;0.88;;;0.28;;
55090;SDS011;40985;53.180;5.800;2022-07-01T10:55:03;5.95;;;1.30;;
55090;SDS011;40985;53.180;5.800;2022-07-01T10:57:31;3.00;;;0.20;;
55090;SDS011;40985;53.180;5.800;2022-07-01T11:02:32;2.40;;;0.22;;
55090;SDS011;40985;53.180;5.800;2022-07-01T11:05:01;2.63;;;0.20;;
55090;SDS011;40985;53.180;5.800;2022-07-01T11:07:32;3.38;;;0.22;;
55090;SDS011;40985;53.180;5.800;2022-07-01T11:09:59;3.17;;;0.28;;
55090;SDS011;40985;53.180;5.800;2022-07-01T11:12:27;1.95;;;0.30;;
55090;SDS011;40985;53.180;5.800;2022-07-01T11:14:54;3.30;;;0.20;;
55090;SDS011;40985;53.180;5.800;2022-07-01T11:17:24;2.05;;;0.30;;
55090;SDS011;40985;53.180;5.800;2022-07-01T11:19:56;1.70;;;0.20;;
55090;SDS011;40985;53.180;5.800;2022-07-01T11:24:56;3.22;;;0.30;;
55090;SDS011;40985;53.180;5.800;2022-07-01T11:27:24;2.95;;;0.60;;
55090;SDS011;40985;53.180;5.800;2022-07-01T11:29:53;4.30;;;0.70;;
55090;SDS011;40985;53.180;5.800;2022-07-01T11:32:40;2.45;;;0.30;;
55090;SDS011;40985;53.180;5.800;2022-07-01T11:35:18;2.17;;;0.30;;
55090;SDS011;40985;53.180;5.800;2022-07-01T11:38:20;3.03;;;0.20;;
55090;SDS011;40985;53.180;5.800;2022-07-01T11:41:09;6.22;;;0.30;;
55090;SDS011;40985;53.180;5.800;2022-07-01T11:43:47;2.05;;;0.30;;
55090;SDS011;40985;53.180;5.800;2022-07-01T11:46:13;1.58;;;0.10;;
55090;SDS011;40985;53.180;5.800;2022-07-01T11:48:43;3.00;;;0.30;;
55090;SDS011;40985;53.180;5.800;2022-07-01T11:51:19;2.65;;;0.20;;
55090;SDS011;40985;53.180;5.800;2022-07-01T11:53:48;2.13;;;0.20;;
55090;SDS011;40985;53.180;5.800;2022-07-01T11:56:16;1.85;;;0.10;;
55090;SDS011;40985;53.180;5.800;2022-07-01T11:58:52;0.80;;;0.10;;
55090;SDS011;40985;53.180;5.800;2022-07-01T12:01:22;4.10;;;0.52;;
55090;SDS011;40985;53.180;5.800;2022-07-01T12:03:57;4.25;;;0.38;;
55090;SDS011;40985;53.180;5.800;2022-07-01T12:06:25;4.93;;;0.85;;
55090;SDS011;40985;53.180;5.800;2022-07-01T12:08:51;3.28;;;0.13;;
55090;SDS011;40985;53.180;5.800;2022-07-01T12:11:18;2.20;;;0.10;;
55090;SDS011;40985;53.180;5.800;2022-07-01T12:13:46;1.23;;;0.15;;
55090;SDS011;40985;53.180;5.800;2022-07-01T12:16:12;4.70;;;0.20;;
55090;SDS011;40985;53.180;5.800;2022-07-01T12:18:39;2.70;;;0.45;;
55090;SDS011;40985;53.180;5.800;2022-07-01T12:21:15;3.33;;;0.10;;
55090;SDS011;40985;53.180;5.800;2022-07-01T12:23:40;3.35;;;0.20;;
55090;SDS011;40985;53.180;5.800;2022-07-01T12:26:07;2.75;;;0.20;;
55090;SDS011;40985;53.180;5.800;2022-07-01T12:28:36;1.83;;;0.20;;
55090;SDS011;40985;53.180;5.800;2022-07-01T12:31:07;1.25;;;0.20;;
55090;SDS011;40985;53.180;5.800;2022-07-01T12:33:38;1.95;;;0.10;;
55090;SDS011;40985;53.180;5.800;2022-07-01T12:36:13;1.27;;;0.20;;
55090;SDS011;40985;53.180;5.800;2022-07-01T12:38:40;1.77;;;0.20;;
55090;SDS011;40985;53.180;5.800;2022-07-01T12:44:05;1.48;;;0.10;;
55090;SDS011;40985;53.180;5.800;2022-07-01T12:46:44;3.67;;;0.20;;
55090;SDS011;40985;53.180;5.800;2022-07-01T12:49:17;3.80;;;0.30;;
55090;SDS011;40985;53.180;5.800;2022-07-01T12:51:44;5.10;;;0.20;;
55090;SDS011;40985;53.180;5.800;2022-07-01T12:54:27;5.07;;;0.73;;
55090;SDS011;40985;53.180;5.800;2022-07-01T12:56:57;1.70;;;0.20;;
55090;SDS011;40985;53.180;5.800;2022-07-01T12:59:23;2.85;;;0.10;;
55090;SDS011;40985;53.180;5.800;2022-07-01T13:01:49;3.53;;;0.30;;
55090;SDS011;40985;53.180;5.800;2022-07-01T13:04:37;6.47;;;0.20;;
55090;SDS011;40985;53.180;5.800;2022-07-01T13:07:02;4.15;;;0.20;;
55090;SDS011;40985;53.180;5.800;2022-07-01T13:09:28;2.85;;;0.20;;
55090;SDS011;40985;53.180;5.800;2022-07-01T13:11:53;2.28;;;0.25;;
55090;SDS011;40985;53.180;5.800;2022-07-01T13:14:19;2.92;;;0.63;;
55090;SDS011;40985;53.180;5.800;2022-07-01T13:16:45;3.42;;;0.38;;
55090;SDS011;40985;53.180;5.800;2022-07-01T13:19:10;2.83;;;0.30;;
55090;SDS011;40985;53.180;5.800;2022-07-01T13:21:36;3.70;;;0.20;;
55090;SDS011;40985;53.180;5.800;2022-07-01T13:24:02;2.28;;;0.28;;
55090;SDS011;40985;53.180;5.800;2022-07-01T13:26:27;2.05;;;0.25;;
55090;SDS011;40985;53.180;5.800;2022-07-01T13:28:53;4.63;;;0.20;;
55090;SDS011;40985;53.180;5.800;2022-07-01T13:31:20;2.85;;;0.20;;
55090;SDS011;40985;53.180;5.800;2022-07-01T13:33:45;4.28;;;0.28;;
55090;SDS011;40985;53.180;5.800;2022-07-01T13:36:11;5.32;;;0.80;;
55090;SDS011;40985;53.180;5.800;2022-07-01T13:38:37;5.28;;;0.28;;
55090;SDS011;40985;53.180;5.800;2022-07-01T13:41:03;3.58;;;0.30;;
55090;SDS011;40985;53.180;5.800;2022-07-01T13:43:29;3.88;;;0.30;;
55090;SDS011;40985;53.180;5.800;2022-07-01T13:45:54;3.63;;;0.20;;
55090;SDS011;40985;53.180;5.800;2022-07-01T13:48:20;4.28;;;0.20;;
55090;SDS011;40985;53.180;5.800;2022-07-01T13:50:45;2.70;;;0.30;;
55090;SDS011;40985;53.180;5.800;2022-07-01T13:53:11;3.65;;;0.30;;
55090;SDS011;40985;53.180;5.800;2022-07-01T13:55:37;2.92;;;0.20;;
55090;SDS011;40985;53.180;5.800;2022-07-01T13:58:02;4.90;;;0.30;;
55090;SDS011;40985;53.180;5.800;2022-07-01T14:00:28;5.30;;;0.43;;
55090;SDS011;40985;53.180;5.800;2022-07-01T14:02:54;4.43;;;0.40;;
55090;SDS011;40985;53.180;5.800;2022-07-01T14:05:19;5.25;;;0.25;;
55090;SDS011;40985;53.180;5.800;2022-07-01T14:07:45;3.33;;;0.20;;
55090;SDS011;40985;53.180;5.800;2022-07-01T14:10:11;3.08;;;0.30;;
55090;SDS011;40985;53.180;5.800;2022-07-01T14:12:36;5.00;;;0.30;;
55090;SDS011;40985;53.180;5.800;2022-07-01T14:15:02;3.90;;;0.50;;
55090;SDS011;40985;53.180;5.800;2022-07-01T14:17:28;2.65;;;0.30;;
55090;SDS011;40985;53.180;5.800;2022-07-01T14:19:54;5.38;;;0.40;;
55090;SDS011;40985;53.180;5.800;2022-07-01T14:22:22;2.05;;;0.20;;
55090;SDS011;40985;53.180;5.800;2022-07-01T14:24:48;5.55;;;0.57;;
55090;SDS011;40985;53.180;5.800;2022-07-01T14:27:14;3.92;;;0.20;;
55090;SDS011;40985;53.180;5.800;2022-07-01T14:29:39;5.40;;;0.43;;
55090;SDS011;40985;53.180;5.800;2022-07-01T14:32:05;3.17;;;0.30;;
55090;SDS011;40985;53.180;5.800;2022-07-01T14:34:31;3.03;;;0.32;;
55090;SDS011;40985;53.180;5.800;2022-07-01T14:36:57;3.17;;;0.20;;
55090;SDS011;40985;53.180;5.800;2022-07-01T14:39:23;6.18;;;0.95;;
55090;SDS011;40985;53.180;5.800;2022-07-01T14:41:48;2.60;;;0.28;;
55090;SDS011;40985;53.180;5.800;2022-07-01T14:44:16;2.50;;;0.20;;
55090;SDS011;40985;53.180;5.800;2022-07-01T14:46:42;7.00;;;0.30;;
55090;SDS011;40985;53.180;5.800;2022-07-01T14:49:08;2.58;;;0.25;;
55090;SDS011;40985;53.180;5.800;2022-07-01T14:51:33;2.05;;;0.20;;
55090;SDS011;40985;53.180;5.800;2022-07-01T14:54:00;2.30;;;0.20;;
55090;SDS011;40985;53.180;5.800;2022-07-01T14:56:25;3.67;;;0.50;;
55090;SDS011;40985;53.180;5.800;2022-07-01T14:58:51;1.85;;;0.20;;
55090;SDS011;40985;53.180;5.800;2022-07-01T15:01:17;3.00;;;0.20;;
55090;SDS011;40985;53.180;5.800;2022-07-01T15:03:43;4.30;;;0.20;;
55090;SDS011;40985;53.180;5.800;2022-07-01T15:06:08;1.45;;;0.10;;
55090;SDS011;40985;53.180;5.800;2022-07-01T15:08:34;2.05;;;0.10;;